Time;durP1;ratioP1;P1;durP2;ratioP2;P2;SDS_P1;SDS_P2;PMS_P1;PMS_P2;Temp;Humidity;BMP_temperature;BMP_pressure;BME280_temperature;BME280_humidity;BME280_pressure;Samples;Min_cycle;Max_cycle;Signal;HPM_P1;HPM_P2
2022/03/05 00:02:15;;;;;;;;;;;-4.80;96.40;;;;;;5043379;28;20335;-72
2022/03/05 00:04:40;;;;;;;;;;;-4.80;97.80;;;;;;5044961;28;20370;-72
2022/03/05 00:07:07;;;;;;;;;;;-4.80;98.40;;;;;;5033618;28;19948;-72
2022/03/05 00:09:32;;;;;;;;;;;-4.80;97.70;;;;;;5036739;28;19939;-72
2022/03/05 00:11:58;;;;;;;;;;;-4.80;97.30;;;;;;5040847;28;19913;-72
2022/03/05 00:14:25;;;;;;;;;;;-4.80;97.30;;;;;;5037831;28;20004;-71
2022/03/05 00:16:50;;;;;;;;;;;-4.70;97.30;;;;;;5032946;28;19917;-72
2022/03/05 00:19:16;;;;;;;;;;;-4.80;97.30;;;;;;5031391;28;19920;-71
2022/03/05 00:21:42;;;;;;;;;;;-4.80;97.30;;;;;;5030747;28;19909;-71
2022/03/05 00:24:07;;;;;;;;;;;-4.80;97.40;;;;;;5032497;28;20297;-72
2022/03/05 00:26:33;;;;;;;;;;;-4.80;97.60;;;;;;5031684;28;19913;-72
2022/03/05 00:28:58;;;;;;;;;;;-4.90;97.60;;;;;;5030410;28;19916;-72
2022/03/05 00:31:24;;;;;;;;;;;-4.90;98.20;;;;;;5031669;28;20330;-72
2022/03/05 00:33:49;;;;;;;;;;;-4.90;97.70;;;;;;5033439;28;19916;-72
2022/03/05 00:36:15;;;;;;;;;;;-5.00;98.10;;;;;;5034429;28;19909;-72
2022/03/05 00:38:40;;;;;;;;;;;-5.00;98.00;;;;;;5033917;28;20007;-72
2022/03/05 00:41:06;;;;;;;;;;;-5.10;98.40;;;;;;5043627;28;20366;-72
2022/03/05 00:43:31;;;;;;;;;;;-5.10;98.50;;;;;;5035787;28;19913;-72
2022/03/05 00:45:57;;;;;;;;;;;-5.10;98.50;;;;;;5033790;28;20065;-72
2022/03/05 00:48:23;;;;;;;;;;;-5.10;98.50;;;;;;5033897;28;19979;-72
2022/03/05 00:50:49;;;;;;;;;;;-5.10;98.70;;;;;;5033878;28;19909;-72
2022/03/05 00:53:17;;;;;;;;;;;-5.00;98.70;;;;;;5032068;28;20285;-72
2022/03/05 00:55:43;;;;;;;;;;;-5.10;98.60;;;;;;5032341;28;19915;-72
2022/03/05 00:58:08;;;;;;;;;;;-5.10;99.00;;;;;;5033725;28;20273;-72
2022/03/05 01:00:34;;;;;;;;;;;-5.20;99.40;;;;;;5033523;28;19913;-72
2022/03/05 01:02:59;;;;;;;;;;;-5.20;99.40;;;;;;5033314;28;19909;-72
2022/03/05 01:05:25;;;;;;;;;;;-5.20;99.60;;;;;;5033197;28;20282;-72
2022/03/05 01:07:50;;;;;;;;;;;-5.20;99.80;;;;;;5033162;28;19916;-72
2022/03/05 01:10:16;;;;;;;;;;;-5.30;99.80;;;;;;5033742;28;19913;-72
2022/03/05 01:12:41;;;;;;;;;;;-5.40;99.90;;;;;;5053602;28;20282;-72
2022/03/05 01:15:07;;;;;;;;;;;-5.50;99.90;;;;;;5039106;28;20258;-72
2022/03/05 01:17:33;;;;;;;;;;;-5.50;99.90;;;;;;5047517;28;20020;-72
2022/03/05 01:19:59;;;;;;;;;;;-5.50;99.90;;;;;;5033118;28;19909;-71
2022/03/05 01:22:24;;;;;;;;;;;-5.50;99.90;;;;;;5032929;28;19963;-71
2022/03/05 01:24:50;;;;;;;;;;;-5.60;99.90;;;;;;5041938;28;20002;-71
2022/03/05 01:27:15;;;;;;;;;;;-5.50;99.90;;;;;;5052063;28;20290;-71
2022/03/05 01:29:41;;;;;;;;;;;-5.50;99.90;;;;;;5051992;28;19909;-71
2022/03/05 01:32:07;;;;;;;;;;;-5.50;99.90;;;;;;5051925;28;19913;-71
2022/03/05 01:34:32;;;;;;;;;;;-5.50;99.90;;;;;;5051777;28;20372;-71
2022/03/05 01:36:58;;;;;;;;;;;-5.60;99.90;;;;;;5051794;28;19912;-71
2022/03/05 01:39:23;;;;;;;;;;;-5.50;99.90;;;;;;5050174;28;19909;-71
2022/03/05 01:41:51;;;;;;;;;;;-5.50;99.90;;;;;;5038397;28;19910;-72
2022/03/05 01:44:18;;;;;;;;;;;-5.50;99.90;;;;;;5038468;28;19966;-71
2022/03/05 01:46:44;;;;;;;;;;;-5.50;99.90;;;;;;5032909;28;19948;-72
2022/03/05 01:49:10;;;;;;;;;;;-5.50;99.90;;;;;;5032523;28;19967;-71
2022/03/05 01:51:35;;;;;;;;;;;-5.50;99.90;;;;;;5032507;28;19913;-72
2022/03/05 01:54:01;;;;;;;;;;;-5.70;99.90;;;;;;5032198;28;20038;-72
2022/03/05 01:56:27;;;;;;;;;;;-5.80;99.90;;;;;;5032532;28;19916;-71
2022/03/05 01:58:52;;;;;;;;;;;-5.90;99.90;;;;;;5032369;28;19909;-72
2022/03/05 02:01:22;;;;;;;;;;;-6.10;99.90;;;;;;5051640;28;19909;-72
2022/03/05 02:03:47;;;;;;;;;;;-6.10;99.90;;;;;;5051285;28;19909;-72
2022/03/05 02:06:13;;;;;;;;;;;-6.10;99.90;;;;;;5032243;28;20425;-71
2022/03/05 02:08:38;;;;;;;;;;;-6.10;99.90;;;;;;5032360;28;19913;-72
2022/03/05 02:11:04;;;;;;;;;;;-6.10;99.90;;;;;;5041680;28;19909;-72
2022/03/05 02:13:30;;;;;;;;;;;-6.10;99.90;;;;;;5034771;28;20358;-72
2022/03/05 02:15:56;;;;;;;;;;;-6.10;99.90;;;;;;5032132;28;20012;-73
2022/03/05 02:18:21;;;;;;;;;;;-5.90;99.90;;;;;;5031130;28;19917;-72
2022/03/05 02:20:47;;;;;;;;;;;-6.10;99.90;;;;;;5032244;28;19992;-73
2022/03/05 02:23:13;;;;;;;;;;;-6.10;99.90;;;;;;5036711;28;19924;-72
2022/03/05 02:25:49;;;;;;;;;;;-6.00;99.90;;;;;;5051331;28;19916;-72
2022/03/05 02:28:14;;;;;;;;;;;-5.90;99.90;;;;;;5050919;28;20000;-71
2022/03/05 02:30:40;;;;;;;;;;;-6.00;99.90;;;;;;5051241;28;20031;-72
2022/03/05 02:33:05;;;;;;;;;;;-6.00;99.90;;;;;;5050785;28;19962;-71
2022/03/05 02:35:30;;;;;;;;;;;-6.10;99.90;;;;;;5051039;28;19920;-71
2022/03/05 02:37:56;;;;;;;;;;;-5.90;99.90;;;;;;5049642;28;20532;-72
2022/03/05 02:40:21;;;;;;;;;;;-5.90;99.90;;;;;;5043560;28;19916;-72
2022/03/05 02:42:47;;;;;;;;;;;-5.90;99.90;;;;;;5042429;28;19909;-72
2022/03/05 02:45:12;;;;;;;;;;;-6.00;99.90;;;;;;5031697;28;20058;-70
2022/03/05 02:47:38;;;;;;;;;;;-5.90;99.90;;;;;;5031920;28;19909;-71
2022/03/05 02:50:04;;;;;;;;;;;-6.10;99.90;;;;;;5031496;28;19955;-72
2022/03/05 02:52:29;;;;;;;;;;;-6.00;99.90;;;;;;5032036;28;19909;-72
2022/03/05 02:54:54;;;;;;;;;;;-6.10;99.90;;;;;;5031746;28;20047;-72
2022/03/05 02:57:20;;;;;;;;;;;-6.10;99.90;;;;;;5031781;28;19924;-72
2022/03/05 02:59:45;;;;;;;;;;;-6.20;99.90;;;;;;5031867;28;19913;-72
2022/03/05 03:02:11;;;;;;;;;;;-6.20;99.90;;;;;;5040415;28;19908;-73
2022/03/05 03:04:36;;;;;;;;;;;-6.20;99.90;;;;;;5050535;28;20368;-75
2022/03/05 03:07:02;;;;;;;;;;;-6.10;99.90;;;;;;5049042;28;19913;-72
2022/03/05 03:09:30;;;;;;;;;;;-6.10;99.90;;;;;;5037659;28;20321;-72
2022/03/05 03:11:55;;;;;;;;;;;-6.00;99.90;;;;;;5040431;28;19909;-72
2022/03/05 03:14:21;;;;;;;;;;;-6.10;99.90;;;;;;5030225;28;19955;-72
2022/03/05 03:16:46;;;;;;;;;;;-6.00;99.90;;;;;;5031897;28;19921;-74
2022/03/05 03:19:12;;;;;;;;;;;-6.10;99.90;;;;;;5031653;28;19971;-73
2022/03/05 03:21:37;;;;;;;;;;;-6.10;99.90;;;;;;5031872;28;19913;-72
2022/03/05 03:24:03;;;;;;;;;;;-6.30;99.90;;;;;;5031493;28;20421;-74
2022/03/05 03:26:28;;;;;;;;;;;-6.40;99.90;;;;;;5038035;28;19909;-71
2022/03/05 03:28:54;;;;;;;;;;;-6.50;99.90;;;;;;5031447;28;19909;-71
2022/03/05 03:31:19;;;;;;;;;;;-6.50;99.90;;;;;;5031448;28;20382;-71
2022/03/05 03:33:45;;;;;;;;;;;-6.50;99.90;;;;;;5031202;28;19932;-71
2022/03/05 03:36:10;;;;;;;;;;;-6.50;99.90;;;;;;5031151;28;19978;-71
2022/03/05 03:38:36;;;;;;;;;;;-6.40;99.90;;;;;;5031376;28;20056;-70
2022/03/05 03:41:01;;;;;;;;;;;-6.40;99.90;;;;;;5043931;28;19916;-71
2022/03/05 03:43:27;;;;;;;;;;;-6.40;99.90;;;;;;5038691;28;19909;-73
2022/03/05 03:45:52;;;;;;;;;;;-6.50;99.90;;;;;;5039928;28;19962;-71
2022/03/05 03:48:18;;;;;;;;;;;-6.40;99.90;;;;;;5053934;28;19912;-71
2022/03/05 03:50:43;;;;;;;;;;;-6.30;99.90;;;;;;5053908;28;19920;-71
2022/03/05 03:53:09;;;;;;;;;;;-6.50;99.90;;;;;;5050588;28;19917;-71
2022/03/05 03:55:35;;;;;;;;;;;-6.60;99.90;;;;;;5049898;28;19909;-71
2022/03/05 03:58:01;;;;;;;;;;;-6.70;99.90;;;;;;5038555;28;19913;-71
2022/03/05 04:00:26;;;;;;;;;;;-6.80;99.90;;;;;;5034809;28;20011;-71
2022/03/05 04:02:52;;;;;;;;;;;-6.60;99.90;;;;;;5033362;28;19955;-71
2022/03/05 04:05:17;;;;;;;;;;;-6.60;99.90;;;;;;5034301;28;19951;-71
2022/03/05 04:10:27;;;;;;;;;;;-6.90;99.90;;;;;;5034656;28;20376;-71
2022/03/05 04:12:52;;;;;;;;;;;-6.90;99.90;;;;;;5034405;28;19909;-70
2022/03/05 04:15:19;;;;;;;;;;;-6.90;99.90;;;;;;5034141;28;19910;-72
2022/03/05 04:17:44;;;;;;;;;;;-6.90;99.90;;;;;;5034598;28;19979;-71
2022/03/05 04:20:10;;;;;;;;;;;-6.90;99.90;;;;;;5034384;28;19945;-71
2022/03/05 04:22:36;;;;;;;;;;;-7.00;99.90;;;;;;5034293;28;19920;-72
2022/03/05 04:25:02;;;;;;;;;;;-6.80;99.90;;;;;;5046138;28;19909;-70
2022/03/05 04:27:27;;;;;;;;;;;-6.80;99.90;;;;;;5048808;28;19909;-72
2022/03/05 04:29:53;;;;;;;;;;;-6.80;99.90;;;;;;5034334;28;20000;-71
2022/03/05 04:32:18;;;;;;;;;;;-6.70;99.90;;;;;;5033845;28;19909;-71
2022/03/05 04:34:44;;;;;;;;;;;-6.90;99.90;;;;;;5033878;28;19920;-71
2022/03/05 04:37:09;;;;;;;;;;;-6.70;99.90;;;;;;5033944;28;19917;-70
2022/03/05 04:39:35;;;;;;;;;;;-6.70;99.90;;;;;;5034064;28;20320;-70
2022/03/05 04:42:00;;;;;;;;;;;-6.60;99.90;;;;;;5033970;28;19909;-71
2022/03/05 04:44:26;;;;;;;;;;;-6.80;99.90;;;;;;5034323;28;19935;-71
2022/03/05 04:46:51;;;;;;;;;;;-6.70;99.90;;;;;;5033741;28;19910;-71
2022/03/05 04:49:17;;;;;;;;;;;-6.90;99.90;;;;;;5033752;28;19992;-71
2022/03/05 04:51:42;;;;;;;;;;;-7.10;99.90;;;;;;5040729;28;19999;-71
2022/03/05 04:54:08;;;;;;;;;;;-7.00;99.90;;;;;;5048583;28;20365;-71
2022/03/05 04:56:33;;;;;;;;;;;-7.10;99.90;;;;;;5036699;28;19909;-71
2022/03/05 04:58:59;;;;;;;;;;;-7.20;99.90;;;;;;5033553;28;19920;-71
2022/03/05 05:01:24;;;;;;;;;;;-7.30;99.90;;;;;;5036351;28;19979;-71
2022/03/05 05:03:50;;;;;;;;;;;-7.10;99.90;;;;;;5039521;28;19909;-71
2022/03/05 05:06:15;;;;;;;;;;;-7.20;99.90;;;;;;5033463;28;19913;-71
2022/03/05 05:08:41;;;;;;;;;;;-7.30;99.90;;;;;;5033556;28;20007;-71
2022/03/05 05:11:07;;;;;;;;;;;-7.30;99.90;;;;;;5033473;28;20370;-71
2022/03/05 05:13:32;;;;;;;;;;;-7.20;99.90;;;;;;5033234;28;19960;-71
2022/03/05 05:15:58;;;;;;;;;;;-7.20;99.90;;;;;;5033056;28;20370;-71
2022/03/05 05:18:23;;;;;;;;;;;-7.20;99.90;;;;;;5033171;28;19913;-71
2022/03/05 05:20:49;;;;;;;;;;;-7.30;99.90;;;;;;5033373;28;19992;-71
2022/03/05 05:23:14;;;;;;;;;;;-7.30;99.90;;;;;;5032867;28;19931;-71
2022/03/05 05:25:40;;;;;;;;;;;-7.30;99.90;;;;;;5047744;28;19932;-71
2022/03/05 05:28:05;;;;;;;;;;;-7.20;99.90;;;;;;5035669;28;19940;-71
2022/03/05 05:30:31;;;;;;;;;;;-7.40;99.90;;;;;;5032904;28;19913;-71
2022/03/05 05:32:56;;;;;;;;;;;-7.20;99.90;;;;;;5032955;28;19909;-71
2022/03/05 05:35:22;;;;;;;;;;;-7.00;99.90;;;;;;5032837;28;19909;-71
2022/03/05 05:37:47;;;;;;;;;;;-7.10;99.90;;;;;;5032821;28;20394;-71
2022/03/05 05:40:13;;;;;;;;;;;-7.20;99.90;;;;;;5032873;28;19913;-71
2022/03/05 05:42:38;;;;;;;;;;;-7.20;99.90;;;;;;5032811;28;20452;-71
2022/03/05 05:45:04;;;;;;;;;;;-7.30;99.90;;;;;;5032562;28;19909;-71
2022/03/05 05:47:30;;;;;;;;;;;-7.40;99.90;;;;;;5032653;28;19913;-71
2022/03/05 05:49:55;;;;;;;;;;;-7.40;99.90;;;;;;5032816;28;19979;-71
2022/03/05 05:52:21;;;;;;;;;;;-7.40;99.90;;;;;;5032544;28;19909;-71
2022/03/05 05:54:46;;;;;;;;;;;-7.30;99.90;;;;;;5042738;28;20331;-71
2022/03/05 05:57:12;;;;;;;;;;;-7.30;99.90;;;;;;5038806;28;19913;-71
2022/03/05 05:59:38;;;;;;;;;;;-7.40;99.90;;;;;;5032279;28;19916;-71
2022/03/05 06:02:03;;;;;;;;;;;-7.40;99.90;;;;;;5039278;28;20413;-71
2022/03/05 06:04:29;;;;;;;;;;;-7.40;99.90;;;;;;5050801;28;20255;-71
2022/03/05 06:06:54;;;;;;;;;;;-7.40;99.90;;;;;;5040541;28;20281;-72
2022/03/05 06:09:20;;;;;;;;;;;-7.30;99.90;;;;;;5043906;28;19909;-72
2022/03/05 06:11:46;;;;;;;;;;;-7.20;99.90;;;;;;5032430;28;20321;-71
2022/03/05 06:14:11;;;;;;;;;;;-7.30;99.90;;;;;;5031790;28;19963;-71
2022/03/05 06:16:37;;;;;;;;;;;-7.30;99.90;;;;;;5037427;28;19999;-71
2022/03/05 06:19:02;;;;;;;;;;;-7.20;99.90;;;;;;5039500;28;19909;-71
2022/03/05 06:21:28;;;;;;;;;;;-7.30;99.90;;;;;;5043401;28;19916;-71
2022/03/05 06:23:53;;;;;;;;;;;-7.20;99.90;;;;;;5047189;28;19908;-71
2022/03/05 06:26:19;;;;;;;;;;;-7.20;99.90;;;;;;5036756;28;20055;-72
2022/03/05 06:28:45;;;;;;;;;;;-7.20;99.90;;;;;;5031871;28;19935;-71
2022/03/05 06:31:10;;;;;;;;;;;-7.00;99.90;;;;;;5031732;28;19910;-71
2022/03/05 06:33:36;;;;;;;;;;;-7.00;99.90;;;;;;5031553;28;19912;-71
2022/03/05 06:36:02;;;;;;;;;;;-7.10;99.90;;;;;;5042117;28;19909;-71
2022/03/05 06:38:27;;;;;;;;;;;-7.00;99.90;;;;;;5050797;28;20412;-72
2022/03/05 06:40:53;;;;;;;;;;;-7.00;99.90;;;;;;5041943;28;19909;-71
2022/03/05 06:43:19;;;;;;;;;;;-6.90;99.90;;;;;;5031562;28;19910;-71
2022/03/05 06:45:45;;;;;;;;;;;-6.90;99.90;;;;;;5031700;28;19917;-71
2022/03/05 06:48:10;;;;;;;;;;;-6.80;99.90;;;;;;5045337;28;19909;-71
2022/03/05 06:50:36;;;;;;;;;;;-6.80;99.90;;;;;;5041066;28;19913;-71
2022/03/05 06:53:01;;;;;;;;;;;-6.70;99.90;;;;;;5037097;28;19909;-71
2022/03/05 06:55:27;;;;;;;;;;;-6.40;99.90;;;;;;5056565;28;19909;-71
2022/03/05 06:57:52;;;;;;;;;;;-6.40;99.90;;;;;;5043199;28;20369;-71
2022/03/05 07:00:18;;;;;;;;;;;-6.50;99.90;;;;;;5046061;28;20067;-71
2022/03/05 07:02:44;;;;;;;;;;;-6.30;99.90;;;;;;5044392;28;19916;-71
2022/03/05 07:05:10;;;;;;;;;;;-6.10;99.90;;;;;;5049505;28;19909;-71
2022/03/05 07:07:36;;;;;;;;;;;-6.00;99.90;;;;;;5049978;28;19932;-72
2022/03/05 07:10:03;;;;;;;;;;;-6.00;99.90;;;;;;5047052;28;20015;-71
2022/03/05 07:12:28;;;;;;;;;;;-5.80;99.90;;;;;;5037398;28;19909;-72
2022/03/05 07:14:54;;;;;;;;;;;-5.60;99.90;;;;;;5037982;28;20431;-72
2022/03/05 07:17:19;;;;;;;;;;;-5.30;99.90;;;;;;5035032;28;20000;-71
2022/03/05 07:19:45;;;;;;;;;;;-5.10;99.90;;;;;;5035528;28;19913;-72
2022/03/05 07:22:10;;;;;;;;;;;-4.90;99.90;;;;;;5035107;28;19913;-72
2022/03/05 07:24:36;;;;;;;;;;;-4.80;99.90;;;;;;5047128;28;19912;-71
2022/03/05 07:27:02;;;;;;;;;;;-4.40;99.90;;;;;;5045170;28;19909;-72
2022/03/05 07:29:27;;;;;;;;;;;-4.20;99.90;;;;;;5054569;28;20354;-72
2022/03/05 07:31:53;;;;;;;;;;;-4.10;99.90;;;;;;5042550;28;19916;-72
2022/03/05 07:34:18;;;;;;;;;;;-3.90;99.90;;;;;;5039902;28;19909;-72
2022/03/05 07:36:44;;;;;;;;;;;-3.80;99.90;;;;;;5038032;28;19962;-71
2022/03/05 07:39:10;;;;;;;;;;;-3.70;99.90;;;;;;5035449;28;19988;-72
2022/03/05 07:41:36;;;;;;;;;;;-3.50;99.90;;;;;;5035370;28;20366;-72
2022/03/05 07:44:02;;;;;;;;;;;-3.50;99.90;;;;;;5035096;28;19909;-72
2022/03/05 07:46:28;;;;;;;;;;;-3.50;99.90;;;;;;5039474;28;19908;-72
2022/03/05 07:48:53;;;;;;;;;;;-3.40;99.90;;;;;;5044292;28;19909;-73
2022/03/05 07:51:19;;;;;;;;;;;-3.20;99.90;;;;;;5035235;28;19941;-72
2022/03/05 07:53:44;;;;;;;;;;;-3.10;99.90;;;;;;5046901;28;19939;-72
2022/03/05 07:56:10;;;;;;;;;;;-2.90;99.90;;;;;;5049734;28;19909;-72
2022/03/05 07:58:35;;;;;;;;;;;-2.80;99.90;;;;;;5042444;28;19974;-72
2022/03/05 08:01:01;;;;;;;;;;;-2.70;99.90;;;;;;5038073;28;20000;-72
2022/03/05 08:03:27;;;;;;;;;;;-2.50;99.90;;;;;;5039045;28;19913;-71
2022/03/05 08:05:53;;;;;;;;;;;-2.10;99.90;;;;;;5039344;28;20003;-71
2022/03/05 08:08:19;;;;;;;;;;;-1.70;99.90;;;;;;5042100;28;19916;-72
2022/03/05 08:10:44;;;;;;;;;;;-1.30;99.90;;;;;;5034750;28;19959;-71
2022/03/05 08:13:10;;;;;;;;;;;-0.90;99.90;;;;;;5034033;28;19940;-71
2022/03/05 08:15:35;;;;;;;;;;;-0.70;99.90;;;;;;5034318;28;19996;-72
2022/03/05 08:18:01;;;;;;;;;;;-0.60;99.90;;;;;;5040661;28;20015;-71
2022/03/05 08:20:28;;;;;;;;;;;-0.50;99.70;;;;;;5039702;28;19913;-71
2022/03/05 08:22:54;;;;;;;;;;;0.60;97.60;;;;;;5033914;28;20481;-72
2022/03/05 08:25:20;;;;;;;;;;;2.70;93.10;;;;;;5044817;28;19913;-72
2022/03/05 08:27:46;;;;;;;;;;;4.80;88.00;;;;;;5039730;28;20415;-72
2022/03/05 08:30:11;;;;;;;;;;;5.30;83.20;;;;;;5034141;28;19996;-70
2022/03/05 08:32:37;;;;;;;;;;;5.80;78.90;;;;;;5033956;28;19916;-70
2022/03/05 08:35:04;;;;;;;;;;;5.90;75.40;;;;;;5053043;28;20301;-71
2022/03/05 08:37:30;;;;;;;;;;;6.10;76.00;;;;;;5053087;28;19920;-71
2022/03/05 08:39:55;;;;;;;;;;;6.50;74.00;;;;;;5052875;28;19909;-72
2022/03/05 08:42:21;;;;;;;;;;;6.80;74.00;;;;;;5052695;28;19952;-71
2022/03/05 08:44:46;;;;;;;;;;;8.00;69.90;;;;;;5052800;28;20294;-72
2022/03/05 08:47:12;;;;;;;;;;;8.40;67.10;;;;;;5052540;28;20368;-72
2022/03/05 08:49:37;;;;;;;;;;;8.70;66.60;;;;;;5052211;28;19912;-72
2022/03/05 08:52:03;;;;;;;;;;;8.70;64.60;;;;;;5052191;28;19978;-72
2022/03/05 08:54:29;;;;;;;;;;;8.10;66.30;;;;;;5044150;28;19964;-72
2022/03/05 08:56:54;;;;;;;;;;;8.40;65.60;;;;;;5044432;28;19952;-72
2022/03/05 08:59:20;;;;;;;;;;;8.80;65.00;;;;;;5032867;28;19909;-72
2022/03/05 09:01:45;;;;;;;;;;;8.90;63.90;;;;;;5032753;28;20027;-72
2022/03/05 09:04:11;;;;;;;;;;;8.80;62.00;;;;;;5032748;28;19996;-72
2022/03/05 09:06:38;;;;;;;;;;;9.20;63.20;;;;;;5032931;28;19913;-73
2022/03/05 09:09:04;;;;;;;;;;;10.00;59.60;;;;;;5032709;28;20264;-74
2022/03/05 09:11:29;;;;;;;;;;;9.80;61.00;;;;;;5032477;28;19964;-74
2022/03/05 09:13:55;;;;;;;;;;;9.60;58.10;;;;;;5032585;28;19948;-73
2022/03/05 09:16:21;;;;;;;;;;;9.20;60.70;;;;;;5037962;28;19917;-73
2022/03/05 09:18:46;;;;;;;;;;;9.40;60.10;;;;;;5036508;28;19917;-74
2022/03/05 09:21:11;;;;;;;;;;;10.90;57.90;;;;;;5032595;28;19910;-74
2022/03/05 09:23:37;;;;;;;;;;;11.30;55.50;;;;;;5032532;28;20145;-73
2022/03/05 09:26:03;;;;;;;;;;;11.00;56.10;;;;;;5042103;28;19947;-73
2022/03/05 09:28:28;;;;;;;;;;;10.70;53.80;;;;;;5032341;28;20425;-73
2022/03/05 09:30:54;;;;;;;;;;;11.30;56.50;;;;;;5032358;28;19920;-74
2022/03/05 09:33:22;;;;;;;;;;;11.90;53.60;;;;;;5031165;28;20444;-73
2022/03/05 09:35:48;;;;;;;;;;;12.10;52.90;;;;;;5032551;28;20087;-73
2022/03/05 09:38:14;;;;;;;;;;;12.50;51.10;;;;;;5031678;28;20430;-73
2022/03/05 09:40:40;;;;;;;;;;;11.40;51.40;;;;;;5032010;28;19951;-73
2022/03/05 09:43:05;;;;;;;;;;;10.80;54.90;;;;;;5030521;28;20004;-73
2022/03/05 09:45:31;;;;;;;;;;;12.10;49.50;;;;;;5032469;28;20431;-73
2022/03/05 09:47:56;;;;;;;;;;;13.30;51.10;;;;;;5032053;28;19913;-73
2022/03/05 09:50:24;;;;;;;;;;;12.70;52.40;;;;;;5051254;28;19908;-74
2022/03/05 09:52:50;;;;;;;;;;;12.30;47.70;;;;;;5051212;28;19978;-74
2022/03/05 09:55:15;;;;;;;;;;;11.90;52.50;;;;;;5043772;28;19996;-73
2022/03/05 09:57:41;;;;;;;;;;;12.60;50.80;;;;;;5043991;28;20385;-73
2022/03/05 10:00:06;;;;;;;;;;;12.10;46.80;;;;;;5051236;28;20002;-74
2022/03/05 10:02:32;;;;;;;;;;;13.50;49.30;;;;;;5050899;28;19909;-74
2022/03/05 10:05:13;;;;;;;;;;;13.80;47.20;;;;;;5050858;28;19913;-74
2022/03/05 10:07:38;;;;;;;;;;;13.60;46.40;;;;;;5050858;28;20016;-74
2022/03/05 10:10:08;;;;;;;;;;;11.50;50.10;;;;;;5050985;28;19995;-73
2022/03/05 10:12:34;;;;;;;;;;;12.50;47.30;;;;;;5031902;28;19909;-73
2022/03/05 10:15:03;;;;;;;;;;;13.90;48.40;;;;;;5031688;28;19999;-73
2022/03/05 10:17:29;;;;;;;;;;;14.20;46.00;;;;;;5031860;28;20038;-73
2022/03/05 10:20:05;;;;;;;;;;;11.70;50.50;;;;;;5031962;28;20614;-73
2022/03/05 10:22:30;;;;;;;;;;;11.20;50.70;;;;;;5031714;28;19936;-73
2022/03/05 10:24:57;;;;;;;;;;;11.00;52.80;;;;;;5044359;28;20358;-73
2022/03/05 10:27:23;;;;;;;;;;;12.50;47.70;;;;;;5036516;28;19915;-73
2022/03/05 10:29:54;;;;;;;;;;;13.80;48.10;;;;;;5031508;28;19992;-73
2022/03/05 10:32:20;;;;;;;;;;;10.70;48.70;;;;;;5031393;28;19910;-73
2022/03/05 10:34:45;;;;;;;;;;;8.70;56.00;;;;;;5031926;28;19916;-73
2022/03/05 10:37:11;;;;;;;;;;;12.20;51.40;;;;;;5049871;28;20332;-73
2022/03/05 10:39:36;;;;;;;;;;;12.40;48.20;;;;;;5050986;28;19917;-73
2022/03/05 10:42:03;;;;;;;;;;;13.60;46.00;;;;;;5050951;28;20370;-74
2022/03/05 10:44:28;;;;;;;;;;;11.90;46.40;;;;;;5050927;28;19909;-73
2022/03/05 10:46:56;;;;;;;;;;;11.70;50.70;;;;;;5051088;28;19916;-74
2022/03/05 10:49:35;;;;;;;;;;;12.40;47.20;;;;;;5032077;28;20370;-73
2022/03/05 10:52:04;;;;;;;;;;;12.60;45.40;;;;;;5034990;28;20290;-72
2022/03/05 10:54:30;;;;;;;;;;;12.50;45.80;;;;;;5042136;28;19991;-74
2022/03/05 10:56:56;;;;;;;;;;;15.60;43.80;;;;;;5039387;28;20394;-73
2022/03/05 10:59:22;;;;;;;;;;;13.50;43.30;;;;;;5035241;28;19909;-73
2022/03/05 11:01:48;;;;;;;;;;;12.10;46.10;;;;;;5035070;28;20501;-73
2022/03/05 11:04:14;;;;;;;;;;;13.50;45.20;;;;;;5035224;28;19909;-73
2022/03/05 11:06:43;;;;;;;;;;;12.80;42.90;;;;;;5035742;28;19909;-73
2022/03/05 11:09:11;;;;;;;;;;;15.60;43.00;;;;;;5035592;28;19909;-73
2022/03/05 11:11:38;;;;;;;;;;;15.40;42.10;;;;;;5035255;28;20366;-73
2022/03/05 11:14:04;;;;;;;;;;;15.90;42.00;;;;;;5034559;28;20283;-74
2022/03/05 11:16:30;;;;;;;;;;;15.90;42.40;;;;;;5047319;28;19917;-74
2022/03/05 11:18:56;;;;;;;;;;;14.90;40.10;;;;;;5033637;28;19913;-74
2022/03/05 11:21:22;;;;;;;;;;;15.80;39.20;;;;;;5035005;28;19909;-74
2022/03/05 11:23:48;;;;;;;;;;;14.80;37.70;;;;;;5040853;28;19909;-74
2022/03/05 11:26:14;;;;;;;;;;;14.60;39.70;;;;;;5044539;28;19955;-74
2022/03/05 11:28:44;;;;;;;;;;;16.10;38.50;;;;;;5034879;28;19909;-74
2022/03/05 11:31:19;;;;;;;;;;;16.30;37.60;;;;;;5034744;28;19909;-74
2022/03/05 11:33:45;;;;;;;;;;;14.30;38.90;;;;;;5033455;28;20374;-74
2022/03/05 11:36:28;;;;;;;;;;;14.10;39.70;;;;;;5035732;28;20168;-74
2022/03/05 11:39:09;;;;;;;;;;;13.10;41.80;;;;;;5037930;28;19917;-75
2022/03/05 11:41:47;;;;;;;;;;;14.20;40.70;;;;;;5038942;28;19909;-75
2022/03/05 11:44:13;;;;;;;;;;;14.40;40.80;;;;;;5048217;28;20221;-75
2022/03/05 11:46:39;;;;;;;;;;;14.90;37.10;;;;;;5054415;28;19941;-75
2022/03/05 11:49:09;;;;;;;;;;;14.80;38.00;;;;;;5054318;28;19982;-74
2022/03/05 11:51:49;;;;;;;;;;;11.80;43.20;;;;;;5054833;28;19916;-75
2022/03/05 11:54:15;;;;;;;;;;;12.40;43.10;;;;;;5041531;28;19913;-75
2022/03/05 11:56:59;;;;;;;;;;;12.30;41.00;;;;;;5049703;28;20373;-74
2022/03/05 12:00:02;;;;;;;;;;;9.20;46.30;;;;;;5035003;28;19961;-74
2022/03/05 12:02:38;;;;;;;;;;;7.70;51.30;;;;;;5062695;28;20313;-75
2022/03/05 12:05:04;;;;;;;;;;;6.20;53.00;;;;;;5054336;28;20258;-73
2022/03/05 12:07:36;;;;;;;;;;;6.10;54.90;;;;;;5054119;28;19913;-74
2022/03/05 12:10:10;;;;;;;;;;;5.50;55.40;;;;;;5054539;28;19955;-74
2022/03/05 12:12:50;;;;;;;;;;;5.70;56.40;;;;;;5054090;28;19923;-74
2022/03/05 12:15:16;;;;;;;;;;;5.40;57.20;;;;;;5053822;28;19909;-75
2022/03/05 12:17:43;;;;;;;;;;;5.20;56.10;;;;;;5053871;28;19920;-74
2022/03/05 12:20:10;;;;;;;;;;;5.40;56.50;;;;;;5054045;28;19908;-74
2022/03/05 12:22:36;;;;;;;;;;;5.70;57.50;;;;;;5047890;28;19913;-74
2022/03/05 12:25:02;;;;;;;;;;;5.70;56.60;;;;;;5048855;28;20582;-74
2022/03/05 12:27:29;;;;;;;;;;;5.70;56.50;;;;;;5039538;28;19910;-73
2022/03/05 12:29:55;;;;;;;;;;;5.60;57.00;;;;;;5034724;28;20366;-73
2022/03/05 12:32:27;;;;;;;;;;;5.60;57.10;;;;;;5034636;28;19916;-73
2022/03/05 12:34:53;;;;;;;;;;;5.70;57.00;;;;;;5034406;28;19909;-74
2022/03/05 12:37:18;;;;;;;;;;;5.60;57.00;;;;;;5034566;28;20355;-73
2022/03/05 12:39:44;;;;;;;;;;;5.30;57.50;;;;;;5034486;28;19924;-74
2022/03/05 12:42:10;;;;;;;;;;;5.10;58.90;;;;;;5034551;28;19909;-74
2022/03/05 12:44:36;;;;;;;;;;;5.00;57.10;;;;;;5033179;28;20003;-74
2022/03/05 12:47:02;;;;;;;;;;;4.80;57.50;;;;;;5034836;28;20370;-73
2022/03/05 12:49:27;;;;;;;;;;;5.00;58.10;;;;;;5034739;28;19916;-74
2022/03/05 12:51:53;;;;;;;;;;;5.00;56.50;;;;;;5034466;28;20377;-74
2022/03/05 12:54:18;;;;;;;;;;;4.90;56.90;;;;;;5040886;28;19959;-74
2022/03/05 12:56:44;;;;;;;;;;;4.90;57.10;;;;;;5049508;28;19953;-73
2022/03/05 12:59:09;;;;;;;;;;;5.00;57.20;;;;;;5033636;28;19964;-74
2022/03/05 13:01:35;;;;;;;;;;;4.90;56.30;;;;;;5033515;28;19913;-74
2022/03/05 13:04:01;;;;;;;;;;;5.00;57.30;;;;;;5033317;28;19909;-73
2022/03/05 13:06:26;;;;;;;;;;;5.00;57.70;;;;;;5033405;28;20015;-73
2022/03/05 13:08:52;;;;;;;;;;;5.10;58.30;;;;;;5033245;28;19975;-73
2022/03/05 13:11:19;;;;;;;;;;;5.00;57.10;;;;;;5033459;28;19909;-73
2022/03/05 13:13:45;;;;;;;;;;;4.70;57.80;;;;;;5033204;28;19915;-73
2022/03/05 13:16:18;;;;;;;;;;;4.90;58.20;;;;;;5035077;28;19921;-72
2022/03/05 13:18:53;;;;;;;;;;;4.90;58.20;;;;;;5040879;28;19917;-74
2022/03/05 13:21:19;;;;;;;;;;;4.90;57.00;;;;;;5033274;28;20438;-73
2022/03/05 13:23:44;;;;;;;;;;;5.10;57.80;;;;;;5037008;28;20008;-73
2022/03/05 13:26:10;;;;;;;;;;;5.10;55.80;;;;;;5042542;28;19909;-73
2022/03/05 13:28:35;;;;;;;;;;;5.40;57.40;;;;;;5052256;28;19967;-74
2022/03/05 13:31:02;;;;;;;;;;;5.10;56.40;;;;;;5052212;28;19908;-73
2022/03/05 13:33:37;;;;;;;;;;;5.10;56.60;;;;;;5051794;28;19915;-73
2022/03/05 13:36:18;;;;;;;;;;;4.90;55.40;;;;;;5035016;28;19909;-73
2022/03/05 13:38:45;;;;;;;;;;;4.80;56.40;;;;;;5032778;28;19913;-74
2022/03/05 13:41:11;;;;;;;;;;;5.00;57.30;;;;;;5032906;28;19945;-73
2022/03/05 13:43:37;;;;;;;;;;;4.90;55.40;;;;;;5032581;28;19960;-73
2022/03/05 13:46:06;;;;;;;;;;;5.00;56.90;;;;;;5033097;28;19917;-74
2022/03/05 13:48:39;;;;;;;;;;;4.70;56.60;;;;;;5032905;28;19909;-73
2022/03/05 13:51:15;;;;;;;;;;;4.60;57.00;;;;;;5046247;28;19940;-74
2022/03/05 13:53:41;;;;;;;;;;;4.60;57.10;;;;;;5046133;28;19909;-73
2022/03/05 13:56:06;;;;;;;;;;;4.90;55.70;;;;;;5039854;28;19959;-73
2022/03/05 13:58:35;;;;;;;;;;;4.80;56.10;;;;;;5033773;28;20354;-73
2022/03/05 14:01:01;;;;;;;;;;;5.00;57.10;;;;;;5038071;28;19909;-74
2022/03/05 14:03:26;;;;;;;;;;;5.10;57.60;;;;;;5032727;28;19909;-74
2022/03/05 14:05:52;;;;;;;;;;;5.00;59.30;;;;;;5033068;28;20020;-74
2022/03/05 14:08:17;;;;;;;;;;;5.00;58.10;;;;;;5032874;28;19909;-74
2022/03/05 14:10:47;;;;;;;;;;;5.10;57.50;;;;;;5032926;28;20012;-74
2022/03/05 14:13:24;;;;;;;;;;;4.90;57.00;;;;;;5045656;28;19909;-74
2022/03/05 14:15:49;;;;;;;;;;;5.00;58.50;;;;;;5032625;28;20002;-74
2022/03/05 14:18:15;;;;;;;;;;;4.90;58.90;;;;;;5032901;28;19945;-74
2022/03/05 14:20:45;;;;;;;;;;;5.00;58.50;;;;;;5032484;28;19913;-74